Time;durP1;ratioP1;P1;durP2;ratioP2;P2;SDS_P1;SDS_P2;PMS_P1;PMS_P2;Temp;Humidity;BMP_temperature;BMP_pressure;BME280_temperature;BME280_humidity;BME280_pressure;Samples;Min_cycle;Max_cycle;Signal;HPM_P1;HPM_P2
2022/05/25 00:01:57;;;;;;;1.02;1.02;;;;;;;;;;1800069;79;26910;-52
2022/05/25 00:04:24;;;;;;;1.00;1.00;;;;;;;;;;1798521;80;26730;-52
2022/05/25 00:06:51;;;;;;;1.00;1.00;;;;;;;;;;1797890;80;26769;-52
2022/05/25 00:09:19;;;;;;;1.22;1.02;;;;;;;;;;1792634;78;26413;-53
2022/05/25 00:11:46;;;;;;;1.52;1.07;;;;;;;;;;1804020;79;26356;-52
2022/05/25 00:14:14;;;;;;;1.00;1.00;;;;;;;;;;1819968;79;26376;-56
2022/05/25 00:16:42;;;;;;;1.20;1.20;;;;;;;;;;1820300;79;26758;-50
2022/05/25 00:21:54;;;;;;;1.00;1.00;;;;;;;;;;1809578;78;26302;-52
2022/05/25 00:24:22;;;;;;;1.17;1.17;;;;;;;;;;1830869;78;26272;-54
2022/05/25 00:26:49;;;;;;;1.00;1.00;;;;;;;;;;1831477;78;26316;-54
2022/05/25 00:29:16;;;;;;;1.10;1.10;;;;;;;;;;1831268;78;26305;-53
2022/05/25 00:31:44;;;;;;;1.02;1.02;;;;;;;;;;1827808;78;26263;-51
2022/05/25 00:34:11;;;;;;;1.00;1.00;;;;;;;;;;1820031;79;26290;-52
2022/05/25 00:36:39;;;;;;;1.65;1.05;;;;;;;;;;1820235;79;26847;-54
2022/05/25 00:39:06;;;;;;;1.17;1.17;;;;;;;;;;1780699;79;26296;-55
2022/05/25 00:41:33;;;;;;;1.00;1.00;;;;;;;;;;1771707;81;26360;-50
2022/05/25 00:44:01;;;;;;;1.00;1.00;;;;;;;;;;1775210;78;26285;-54
2022/05/25 00:46:29;;;;;;;1.67;1.15;;;;;;;;;;1801082;79;26349;-51
2022/05/25 00:48:58;;;;;;;0.90;0.90;;;;;;;;;;1798346;79;26383;-52
2022/05/25 00:51:32;;;;;;;1.10;1.10;;;;;;;;;;1772074;81;26339;-56
2022/05/25 00:54:04;;;;;;;1.02;1.02;;;;;;;;;;1771788;81;26367;-57
2022/05/25 00:56:32;;;;;;;1.32;1.30;;;;;;;;;;1770655;80;26407;-51
2022/05/25 00:59:01;;;;;;;1.17;1.10;;;;;;;;;;1777626;78;28366;-48
2022/05/25 01:01:30;;;;;;;1.10;1.10;;;;;;;;;;1792349;79;26309;-53
2022/05/25 01:03:58;;;;;;;2.65;0.95;;;;;;;;;;1794508;80;26321;-53
2022/05/25 01:06:45;;;;;;;1.55;1.02;;;;;;;;;;1794911;80;26611;-45
2022/05/25 01:09:13;;;;;;;0.90;0.90;;;;;;;;;;1801650;78;26262;-45
2022/05/25 01:11:45;;;;;;;1.12;1.10;;;;;;;;;;1786388;80;26278;-49
2022/05/25 01:14:23;;;;;;;0.90;0.90;;;;;;;;;;1783436;80;26745;-53
2022/05/25 01:17:01;;;;;;;1.10;1.10;;;;;;;;;;1799992;78;26341;-50
2022/05/25 01:19:33;;;;;;;3.50;1.10;;;;;;;;;;1795949;78;26309;-49
2022/05/25 01:22:02;;;;;;;1.02;1.02;;;;;;;;;;1791731;80;26301;-50
2022/05/25 01:24:37;;;;;;;1.20;1.10;;;;;;;;;;1785734;80;28366;-53
2022/05/25 01:27:22;;;;;;;0.90;0.90;;;;;;;;;;1793542;80;26306;-49
2022/05/25 01:30:09;;;;;;;1.15;1.15;;;;;;;;;;1792499;80;27200;-53
2022/05/25 01:32:38;;;;;;;1.10;1.10;;;;;;;;;;1796271;78;26313;-54
2022/05/25 01:35:07;;;;;;;1.12;1.12;;;;;;;;;;1790401;78;32237;-47
2022/05/25 01:37:36;;;;;;;1.07;1.07;;;;;;;;;;1788866;79;26761;-46
2022/05/25 01:40:04;;;;;;;1.10;1.10;;;;;;;;;;1791032;78;26722;-49
2022/05/25 01:42:33;;;;;;;1.70;1.30;;;;;;;;;;1792944;80;26367;-51
2022/05/25 01:45:02;;;;;;;2.12;1.20;;;;;;;;;;1794597;79;26294;-50
2022/05/25 01:47:31;;;;;;;1.10;1.10;;;;;;;;;;1794577;80;26266;-48
2022/05/25 01:50:12;;;;;;;1.85;1.20;;;;;;;;;;1784798;78;26218;-47
2022/05/25 01:52:43;;;;;;;0.90;0.90;;;;;;;;;;1811078;78;26278;-49
2022/05/25 01:55:12;;;;;;;1.00;1.00;;;;;;;;;;1795011;78;26298;-48
2022/05/25 01:57:42;;;;;;;1.00;1.00;;;;;;;;;;1792306;78;26337;-46
2022/05/25 02:00:10;;;;;;;1.05;0.98;;;;;;;;;;1804162;78;26647;-45
2022/05/25 02:05:23;;;;;;;1.10;1.10;;;;;;;;;;1791175;78;26418;-47
2022/05/25 02:07:58;;;;;;;1.12;1.02;;;;;;;;;;1786648;78;26858;-51
2022/05/25 02:10:27;;;;;;;0.98;0.98;;;;;;;;;;1784882;79;26325;-45
2022/05/25 02:13:12;;;;;;;1.02;1.02;;;;;;;;;;1783184;79;26311;-48
2022/05/25 02:15:50;;;;;;;1.00;1.00;;;;;;;;;;1800173;79;26333;-47
2022/05/25 02:18:36;;;;;;;1.05;1.00;;;;;;;;;;1812298;78;26281;-49
2022/05/25 02:21:07;;;;;;;1.00;1.00;;;;;;;;;;1790392;79;26684;-49
2022/05/25 02:23:40;;;;;;;0.98;0.98;;;;;;;;;;1800116;79;26836;-50
2022/05/25 02:26:08;;;;;;;1.00;1.00;;;;;;;;;;1799475;79;26343;-50
2022/05/25 02:28:39;;;;;;;0.80;0.80;;;;;;;;;;1808065;78;26277;-48
2022/05/25 02:31:08;;;;;;;0.98;0.98;;;;;;;;;;1812250;78;26294;-47
2022/05/25 02:33:41;;;;;;;1.07;1.07;;;;;;;;;;1806437;78;26777;-48
2022/05/25 02:36:10;;;;;;;1.45;1.10;;;;;;;;;;1800206;78;26219;-48
2022/05/25 02:38:38;;;;;;;0.90;0.90;;;;;;;;;;1793749;78;26395;-48
2022/05/25 02:41:08;;;;;;;1.00;0.90;;;;;;;;;;1798577;78;26367;-48
2022/05/25 02:43:36;;;;;;;1.00;1.00;;;;;;;;;;1800278;79;26360;-51
2022/05/25 02:46:04;;;;;;;1.10;1.10;;;;;;;;;;1800002;79;26305;-48
2022/05/25 02:48:32;;;;;;;0.90;0.90;;;;;;;;;;1800054;79;26348;-48
2022/05/25 02:50:59;;;;;;;0.90;0.90;;;;;;;;;;1800119;79;26289;-50
2022/05/25 02:53:26;;;;;;;1.00;1.00;;;;;;;;;;1799485;79;26368;-50
2022/05/25 02:55:54;;;;;;;1.00;1.00;;;;;;;;;;1799957;79;26273;-48
2022/05/25 02:58:21;;;;;;;0.90;0.90;;;;;;;;;;1801176;78;26908;-48
2022/05/25 03:00:49;;;;;;;1.07;1.07;;;;;;;;;;1799255;78;26733;-46
2022/05/25 03:03:16;;;;;;;0.90;0.90;;;;;;;;;;1800231;79;26733;-47
2022/05/25 03:05:43;;;;;;;3.30;1.10;;;;;;;;;;1800045;79;26356;-45
2022/05/25 03:08:11;;;;;;;1.10;1.10;;;;;;;;;;1803633;78;26328;-45
2022/05/25 03:10:38;;;;;;;1.00;1.00;;;;;;;;;;1801404;78;26863;-48
2022/05/25 03:13:06;;;;;;;1.00;1.00;;;;;;;;;;1799734;79;26289;-46
2022/05/25 03:15:34;;;;;;;1.00;1.00;;;;;;;;;;1800126;79;26367;-48
2022/05/25 03:18:01;;;;;;;1.05;1.05;;;;;;;;;;1800106;79;26286;-48
2022/05/25 03:20:29;;;;;;;1.00;1.00;;;;;;;;;;1800111;79;26293;-47
2022/05/25 03:22:56;;;;;;;1.10;1.10;;;;;;;;;;1800164;79;26781;-46
2022/05/25 03:25:24;;;;;;;1.55;1.00;;;;;;;;;;1800186;79;26272;-48
2022/05/25 03:27:51;;;;;;;1.05;1.05;;;;;;;;;;1800121;79;26690;-47
2022/05/25 03:30:20;;;;;;;1.02;1.02;;;;;;;;;;1800071;78;26274;-47
2022/05/25 03:32:47;;;;;;;1.10;1.10;;;;;;;;;;1792996;79;27205;-47
2022/05/25 03:35:15;;;;;;;1.20;1.20;;;;;;;;;;1809146;78;25877;-50
2022/05/25 03:37:43;;;;;;;2.08;1.20;;;;;;;;;;1796453;79;26276;-47
2022/05/25 03:40:12;;;;;;;1.10;1.10;;;;;;;;;;1810644;78;26332;-47
2022/05/25 03:42:40;;;;;;;1.10;1.10;;;;;;;;;;1807677;78;26292;-48
2022/05/25 03:45:08;;;;;;;1.10;1.10;;;;;;;;;;1800211;79;27223;-45
2022/05/25 03:47:35;;;;;;;1.00;1.00;;;;;;;;;;1800275;79;27469;-47
2022/05/25 03:50:03;;;;;;;1.00;1.00;;;;;;;;;;1800315;79;26402;-48
2022/05/25 03:52:30;;;;;;;1.00;1.00;;;;;;;;;;1811965;78;26514;-48
2022/05/25 03:54:58;;;;;;;1.35;1.00;;;;;;;;;;1800050;79;26301;-47
2022/05/25 03:57:25;;;;;;;1.00;1.00;;;;;;;;;;1800319;79;26270;-49
2022/05/25 03:59:52;;;;;;;1.30;1.00;;;;;;;;;;1803230;79;26351;-46
2022/05/25 04:02:20;;;;;;;1.15;1.10;;;;;;;;;;1803521;78;26293;-51
2022/05/25 04:04:47;;;;;;;1.17;1.17;;;;;;;;;;1801976;78;26779;-46
2022/05/25 04:07:14;;;;;;;1.10;1.10;;;;;;;;;;1801866;79;26758;-48
2022/05/25 04:09:41;;;;;;;1.00;1.00;;;;;;;;;;1802450;78;26943;-48
2022/05/25 04:12:09;;;;;;;1.20;1.00;;;;;;;;;;1802579;79;26859;-45
2022/05/25 04:14:36;;;;;;;1.00;1.00;;;;;;;;;;1803690;79;26252;-49
2022/05/25 04:17:04;;;;;;;1.00;1.00;;;;;;;;;;1803348;78;26808;-47
2022/05/25 04:19:32;;;;;;;1.05;1.02;;;;;;;;;;1803407;79;27435;-46
2022/05/25 04:21:59;;;;;;;1.00;1.00;;;;;;;;;;1803586;79;26419;-50
2022/05/25 04:24:26;;;;;;;1.10;1.10;;;;;;;;;;1803498;79;26292;-51
2022/05/25 04:26:54;;;;;;;1.00;1.00;;;;;;;;;;1795793;79;26948;-50
2022/05/25 04:29:21;;;;;;;0.95;0.95;;;;;;;;;;1796085;79;27362;-51
2022/05/25 04:31:48;;;;;;;1.10;1.10;;;;;;;;;;1802401;78;26342;-46
2022/05/25 04:34:16;;;;;;;1.22;1.10;;;;;;;;;;1803871;79;26274;-45
2022/05/25 04:36:44;;;;;;;1.20;1.20;;;;;;;;;;1803624;79;26247;-48
2022/05/25 04:39:11;;;;;;;1.02;1.02;;;;;;;;;;1796542;78;26798;-48
2022/05/25 04:41:39;;;;;;;1.12;1.12;;;;;;;;;;1803161;79;26294;-47
2022/05/25 04:44:06;;;;;;;1.10;1.10;;;;;;;;;;1803555;79;26286;-48
2022/05/25 04:46:34;;;;;;;1.00;1.00;;;;;;;;;;1803592;79;26952;-49
2022/05/25 04:49:01;;;;;;;1.10;1.10;;;;;;;;;;1803710;79;26779;-46
2022/05/25 04:51:29;;;;;;;1.00;1.00;;;;;;;;;;1803711;78;27494;-47
2022/05/25 04:53:56;;;;;;;1.10;1.10;;;;;;;;;;1812871;78;26946;-45
2022/05/25 04:59:11;;;;;;;1.10;1.10;;;;;;;;;;1742246;81;26348;-46
2022/05/25 05:01:38;;;;;;;1.00;1.00;;;;;;;;;;1744531;81;26369;-50
2022/05/25 05:04:05;;;;;;;1.00;1.00;;;;;;;;;;1764534;79;26349;-50
2022/05/25 05:06:32;;;;;;;1.30;1.20;;;;;;;;;;1810828;78;26379;-46
2022/05/25 05:09:00;;;;;;;1.40;1.20;;;;;;;;;;1803323;78;26277;-46
2022/05/25 05:11:27;;;;;;;1.65;1.10;;;;;;;;;;1809283;78;26355;-54
2022/05/25 05:13:55;;;;;;;1.27;1.02;;;;;;;;;;1805951;79;26752;-46
2022/05/25 05:16:22;;;;;;;0.90;0.90;;;;;;;;;;1809333;79;27429;-48
2022/05/25 05:18:49;;;;;;;1.15;1.10;;;;;;;;;;1818665;78;26776;-48
2022/05/25 05:21:16;;;;;;;1.17;1.07;;;;;;;;;;1802090;78;26753;-49
2022/05/25 05:23:44;;;;;;;2.50;1.47;;;;;;;;;;1809541;79;27438;-48
2022/05/25 05:26:12;;;;;;;1.12;1.00;;;;;;;;;;1809599;79;26341;-46
2022/05/25 05:28:40;;;;;;;2.30;1.30;;;;;;;;;;1809350;79;26316;-48
2022/05/25 05:31:09;;;;;;;0.90;0.90;;;;;;;;;;1811017;78;26661;-47
2022/05/25 05:33:37;;;;;;;1.10;1.00;;;;;;;;;;1810594;78;26258;-45
2022/05/25 05:36:08;;;;;;;2.25;1.00;;;;;;;;;;1809750;79;26312;-47
2022/05/25 05:38:37;;;;;;;1.10;1.10;;;;;;;;;;1804434;78;26712;-50
2022/05/25 05:41:04;;;;;;;1.72;1.05;;;;;;;;;;1809873;79;26305;-49
2022/05/25 05:43:32;;;;;;;2.00;1.05;;;;;;;;;;1809390;79;26246;-48
2022/05/25 05:46:00;;;;;;;4.50;1.22;;;;;;;;;;1809678;79;26977;-46
2022/05/25 05:48:29;;;;;;;1.02;1.02;;;;;;;;;;1798957;79;26332;-50
2022/05/25 05:50:57;;;;;;;2.15;1.00;;;;;;;;;;1809391;79;26355;-48
2022/05/25 05:53:26;;;;;;;2.85;1.05;;;;;;;;;;1820529;78;26629;-47
2022/05/25 05:55:53;;;;;;;1.10;1.10;;;;;;;;;;1807863;78;26841;-47
2022/05/25 05:58:21;;;;;;;1.62;1.10;;;;;;;;;;1811027;78;26355;-46
2022/05/25 06:00:48;;;;;;;2.37;1.00;;;;;;;;;;1794876;78;26328;-47
2022/05/25 06:03:15;;;;;;;1.85;1.00;;;;;;;;;;1794890;80;26694;-47
2022/05/25 06:05:47;;;;;;;0.90;0.90;;;;;;;;;;1794817;80;26231;-48
2022/05/25 06:08:14;;;;;;;1.52;0.90;;;;;;;;;;1796431;78;26368;-45
2022/05/25 06:10:41;;;;;;;1.30;1.20;;;;;;;;;;1788706;78;26781;-50
2022/05/25 06:13:09;;;;;;;1.10;1.10;;;;;;;;;;1795075;78;26285;-48
2022/05/25 06:21:09;;;;;;;5.65;1.20;;;;;;;;;;1785135;78;26349;-46
2022/05/25 06:23:36;;;;;;;8.88;1.82;;;;;;;;;;1792699;78;26294;-45
2022/05/25 06:26:04;;;;;;;1.47;1.10;;;;;;;;;;1790537;80;26214;-48
2022/05/25 06:28:31;;;;;;;0.93;0.93;;;;;;;;;;1793840;80;26831;-50
2022/05/25 06:30:58;;;;;;;0.95;0.95;;;;;;;;;;1790028;78;26821;-48
2022/05/25 06:33:25;;;;;;;0.95;0.95;;;;;;;;;;1796504;78;26694;-48
2022/05/25 06:35:53;;;;;;;1.42;1.10;;;;;;;;;;1794083;80;26269;-48
2022/05/25 06:38:20;;;;;;;1.00;1.00;;;;;;;;;;1796720;78;26289;-52
2022/05/25 06:40:47;;;;;;;1.30;1.30;;;;;;;;;;1792002;80;26381;-47
2022/05/25 06:43:14;;;;;;;1.02;1.00;;;;;;;;;;1794044;80;26278;-48
2022/05/25 06:45:42;;;;;;;1.45;1.02;;;;;;;;;;1799184;78;26359;-48
2022/05/25 06:48:12;;;;;;;1.20;1.20;;;;;;;;;;1794077;80;26355;-50
2022/05/25 06:50:39;;;;;;;1.57;1.00;;;;;;;;;;1803438;78;26287;-48
2022/05/25 06:53:07;;;;;;;1.10;1.10;;;;;;;;;;1797101;78;26635;-48
2022/05/25 06:55:34;;;;;;;1.95;1.17;;;;;;;;;;1794112;80;26340;-48
2022/05/25 06:58:01;;;;;;;2.15;1.00;;;;;;;;;;1793695;80;26266;-46
2022/05/25 07:00:29;;;;;;;1.32;1.10;;;;;;;;;;1802518;78;26935;-45
2022/05/25 07:02:56;;;;;;;2.22;1.10;;;;;;;;;;1799346;79;26450;-48
2022/05/25 07:05:23;;;;;;;1.07;1.07;;;;;;;;;;1798329;79;26304;-46
2022/05/25 07:07:50;;;;;;;1.10;1.10;;;;;;;;;;1797641;79;26737;-50
2022/05/25 07:10:18;;;;;;;1.47;1.37;;;;;;;;;;1800007;79;26797;-47
2022/05/25 07:12:45;;;;;;;1.77;1.20;;;;;;;;;;1798047;78;26684;-47
2022/05/25 07:15:13;;;;;;;1.10;1.10;;;;;;;;;;1800567;79;26309;-49
2022/05/25 07:17:40;;;;;;;1.95;1.10;;;;;;;;;;1800524;79;26280;-50
2022/05/25 07:20:09;;;;;;;1.20;1.10;;;;;;;;;;1800150;79;26283;-49
2022/05/25 07:22:38;;;;;;;1.20;1.10;;;;;;;;;;1800251;79;26282;-47
2022/05/25 07:25:06;;;;;;;1.07;1.07;;;;;;;;;;1799982;79;26758;-47
2022/05/25 07:27:33;;;;;;;1.70;1.10;;;;;;;;;;1797925;78;26297;-48
2022/05/25 07:30:00;;;;;;;1.62;1.52;;;;;;;;;;1801961;79;26259;-45
2022/05/25 07:32:29;;;;;;;1.10;1.10;;;;;;;;;;1802680;79;26257;-45
2022/05/25 07:34:58;;;;;;;1.10;1.10;;;;;;;;;;1802478;79;26944;-46
2022/05/25 07:37:26;;;;;;;1.22;1.22;;;;;;;;;;1799389;78;26792;-46
2022/05/25 07:39:55;;;;;;;1.87;1.20;;;;;;;;;;1800058;79;26363;-48
2022/05/25 07:42:23;;;;;;;1.00;1.00;;;;;;;;;;1797690;78;26620;-50
2022/05/25 07:44:55;;;;;;;1.10;1.10;;;;;;;;;;1799254;79;26273;-48
2022/05/25 07:47:23;;;;;;;1.10;1.10;;;;;;;;;;1800432;78;26872;-52
2022/05/25 07:49:50;;;;;;;1.10;1.10;;;;;;;;;;1800600;79;26694;-45
2022/05/25 07:52:18;;;;;;;1.00;1.00;;;;;;;;;;1800388;79;26270;-45
2022/05/25 07:54:47;;;;;;;1.15;1.15;;;;;;;;;;1800424;79;26759;-51
2022/05/25 07:57:14;;;;;;;1.20;1.20;;;;;;;;;;1798497;78;26864;-52
2022/05/25 07:59:42;;;;;;;1.10;1.10;;;;;;;;;;1795353;77;26285;-48
2022/05/25 08:07:52;;;;;;;3.00;1.70;;;;;;;;;;1800598;78;26310;-43
2022/05/25 08:10:22;;;;;;;1.92;1.42;;;;;;;;;;1800126;78;26398;-46
2022/05/25 08:12:50;;;;;;;1.80;1.70;;;;;;;;;;1799867;79;26293;-46
2022/05/25 08:15:17;;;;;;;1.70;1.50;;;;;;;;;;1792020;79;26261;-51
2022/05/25 08:17:45;;;;;;;1.35;1.25;;;;;;;;;;1800156;79;26274;-50
2022/05/25 08:20:12;;;;;;;5.20;1.65;;;;;;;;;;1805550;78;26781;-47
2022/05/25 08:22:40;;;;;;;9.78;1.50;;;;;;;;;;1799494;78;26301;-50
2022/05/25 08:25:08;;;;;;;3.25;1.50;;;;;;;;;;1800408;79;26302;-50
2022/05/25 08:27:42;;;;;;;1.37;1.30;;;;;;;;;;1800391;79;27595;-52
2022/05/25 08:30:10;;;;;;;1.40;1.40;;;;;;;;;;1799971;79;26800;-53
2022/05/25 08:32:37;;;;;;;4.30;1.57;;;;;;;;;;1796451;78;26269;-47
2022/05/25 08:35:05;;;;;;;2.85;1.40;;;;;;;;;;1807585;78;26725;-53
2022/05/25 08:37:33;;;;;;;3.37;1.50;;;;;;;;;;1801848;78;26846;-54
2022/05/25 08:40:00;;;;;;;2.05;1.37;;;;;;;;;;1807549;78;26762;-54
2022/05/25 08:42:29;;;;;;;1.67;1.57;;;;;;;;;;1803319;78;26605;-51
2022/05/25 08:44:57;;;;;;;9.80;1.65;;;;;;;;;;1805028;78;26356;-54
2022/05/25 08:47:25;;;;;;;2.67;1.47;;;;;;;;;;1800364;79;26735;-54
2022/05/25 08:49:52;;;;;;;1.50;1.50;;;;;;;;;;1800124;78;26247;-50
2022/05/25 08:52:24;;;;;;;1.82;1.60;;;;;;;;;;1799988;79;26348;-53
2022/05/25 08:54:52;;;;;;;1.87;1.70;;;;;;;;;;1799591;79;26710;-59
2022/05/25 08:57:33;;;;;;;1.42;1.32;;;;;;;;;;1800612;79;26721;-57
2022/05/25 09:00:02;;;;;;;3.60;1.45;;;;;;;;;;1802197;78;26752;-52
2022/05/25 09:02:36;;;;;;;1.50;1.40;;;;;;;;;;1793407;79;29002;-50
2022/05/25 09:05:13;;;;;;;1.35;1.30;;;;;;;;;;1805562;78;26270;-48
2022/05/25 09:07:42;;;;;;;3.12;1.50;;;;;;;;;;1795817;78;26317;-45
2022/05/25 09:10:10;;;;;;;1.20;1.20;;;;;;;;;;1803525;79;26395;-52
2022/05/25 09:12:58;;;;;;;1.50;1.40;;;;;;;;;;1802633;79;26351;-53
2022/05/25 09:15:27;;;;;;;5.42;1.62;;;;;;;;;;1803078;78;26603;-47
2022/05/25 09:17:58;;;;;;;6.05;1.98;;;;;;;;;;1803499;79;26340;-48
2022/05/25 09:20:27;;;;;;;7.28;1.90;;;;;;;;;;1803400;79;26879;-46
2022/05/25 09:22:56;;;;;;;14.93;2.17;;;;;;;;;;1802913;79;26265;-43
2022/05/25 09:25:25;;;;;;;5.20;1.70;;;;;;;;;;1803370;79;26261;-45
2022/05/25 09:28:12;;;;;;;5.08;1.50;;;;;;;;;;1801977;79;26265;-50
2022/05/25 09:30:39;;;;;;;2.80;1.55;;;;;;;;;;1803398;78;26298;-53
2022/05/25 09:33:14;;;;;;;13.08;2.02;;;;;;;;;;1801423;79;26686;-51
2022/05/25 09:35:43;;;;;;;7.78;1.70;;;;;;;;;;1805460;78;26335;-50
2022/05/25 09:38:15;;;;;;;9.58;1.75;;;;;;;;;;1799081;78;26317;-52
2022/05/25 09:40:46;;;;;;;14.07;1.80;;;;;;;;;;1798567;78;26316;-47
2022/05/25 09:43:15;;;;;;;6.90;1.60;;;;;;;;;;1801014;78;26354;-48
2022/05/25 09:45:48;;;;;;;2.25;1.55;;;;;;;;;;1799095;78;26339;-46
2022/05/25 09:48:16;;;;;;;8.95;1.67;;;;;;;;;;1800601;78;26790;-44
2022/05/25 09:50:45;;;;;;;4.20;1.60;;;;;;;;;;1800711;78;26295;-48
2022/05/25 09:53:17;;;;;;;2.58;1.45;;;;;;;;;;1800582;78;26301;-55
2022/05/25 09:55:45;;;;;;;5.58;1.55;;;;;;;;;;1802553;78;26970;-56
2022/05/25 09:58:14;;;;;;;7.05;2.02;;;;;;;;;;1798568;78;26810;-46
2022/05/25 10:00:58;;;;;;;3.17;1.90;;;;;;;;;;1797503;78;26371;-51
2022/05/25 10:03:27;;;;;;;4.42;2.20;;;;;;;;;;1799994;78;26291;-46
2022/05/25 10:05:56;;;;;;;2.60;2.17;;;;;;;;;;1793872;78;26325;-50
2022/05/25 10:08:24;;;;;;;2.40;2.10;;;;;;;;;;1791252;78;26900;-52
2022/05/25 10:11:00;;;;;;;2.95;1.70;;;;;;;;;;1791881;78;26706;-46
2022/05/25 10:13:25;;;;;;;2.50;1.75;;;;;;;;;;1789860;78;26278;-48
2022/05/25 10:15:53;;;;;;;6.85;2.25;;;;;;;;;;1791017;78;26309;-49
2022/05/25 10:18:37;;;;;;;1.98;1.80;;;;;;;;;;1791172;78;26274;-49
2022/05/25 10:21:08;;;;;;;3.60;1.87;;;;;;;;;;1790736;78;26774;-53
2022/05/25 10:23:37;;;;;;;1.90;1.90;;;;;;;;;;1784358;78;26325;-49
2022/05/25 10:26:09;;;;;;;2.20;2.10;;;;;;;;;;1794107;80;26310;-51
2022/05/25 10:28:37;;;;;;;2.62;2.10;;;;;;;;;;1783550;78;26330;-54
2022/05/25 10:36:57;;;;;;;2.30;2.05;;;;;;;;;;1793562;78;26340;-49
2022/05/25 10:39:32;;;;;;;2.00;1.90;;;;;;;;;;1785533;78;27228;-52
2022/05/25 10:42:00;;;;;;;2.60;2.00;;;;;;;;;;1804658;78;26348;-48
2022/05/25 10:44:29;;;;;;;2.30;2.10;;;;;;;;;;1794755;80;26274;-52
2022/05/25 10:47:00;;;;;;;3.17;2.20;;;;;;;;;;1791639;78;26615;-52
2022/05/25 10:49:32;;;;;;;2.67;2.10;;;;;;;;;;1780413;78;26409;-52
2022/05/25 10:52:01;;;;;;;7.30;2.20;;;;;;;;;;1784147;78;26830;-52
2022/05/25 10:54:49;;;;;;;2.27;2.17;;;;;;;;;;1788660;78;26872;-50
2022/05/25 10:57:24;;;;;;;4.70;2.77;;;;;;;;;;1788700;78;26360;-47
2022/05/25 10:59:53;;;;;;;2.70;2.40;;;;;;;;;;1782336;78;26589;-53
2022/05/25 11:02:24;;;;;;;2.95;2.52;;;;;;;;;;1785777;78;26438;-49
2022/05/25 11:05:02;;;;;;;2.60;2.40;;;;;;;;;;1784951;78;26635;-51
2022/05/25 11:07:34;;;;;;;2.50;2.40;;;;;;;;;;1788521;78;26350;-50
2022/05/25 11:10:15;;;;;;;2.87;2.67;;;;;;;;;;1791392;78;26372;-47
2022/05/25 11:12:53;;;;;;;3.45;2.60;;;;;;;;;;1794102;78;26717;-46
2022/05/25 11:15:21;;;;;;;2.80;2.60;;;;;;;;;;1780993;78;26359;-49
2022/05/25 11:18:02;;;;;;;3.10;2.70;;;;;;;;;;1784518;78;26297;-52
2022/05/25 11:20:47;;;;;;;2.40;2.30;;;;;;;;;;1790188;78;26261;-47
2022/05/25 11:23:15;;;;;;;2.52;2.40;;;;;;;;;;1793461;78;26721;-48
2022/05/25 11:26:01;;;;;;;3.85;2.40;;;;;;;;;;1790883;78;26899;-53
2022/05/25 11:28:46;;;;;;;2.90;2.60;;;;;;;;;;1790853;78;26947;-51
2022/05/25 11:31:18;;;;;;;2.80;2.60;;;;;;;;;;1802889;78;26290;-50
2022/05/25 11:34:05;;;;;;;2.72;2.50;;;;;;;;;;1784136;78;26794;-50
2022/05/25 11:36:52;;;;;;;2.37;2.27;;;;;;;;;;1784961;78;26784;-50
2022/05/25 11:39:38;;;;;;;3.58;2.40;;;;;;;;;;1785537;78;26297;-50
2022/05/25 11:42:07;;;;;;;2.30;2.20;;;;;;;;;;1783510;78;26943;-52
2022/05/25 11:44:45;;;;;;;2.45;2.20;;;;;;;;;;1784356;78;26305;-51
2022/05/25 11:47:17;;;;;;;2.30;2.20;;;;;;;;;;1786025;78;26227;-53
2022/05/25 11:50:03;;;;;;;4.87;2.27;;;;;;;;;;1789782;78;26615;-53
2022/05/25 11:52:38;;;;;;;3.00;2.08;;;;;;;;;;1788606;78;26321;-53
2022/05/25 11:55:09;;;;;;;3.67;2.12;;;;;;;;;;1781582;78;26271;-48
2022/05/25 11:57:47;;;;;;;2.05;1.95;;;;;;;;;;1785201;78;26360;-51
2022/05/25 12:00:19;;;;;;;4.65;2.22;;;;;;;;;;1789151;78;27131;-53
2022/05/25 12:03:06;;;;;;;2.30;2.10;;;;;;;;;;1787665;78;26395;-53
2022/05/25 12:05:34;;;;;;;2.85;2.10;;;;;;;;;;1786863;78;26356;-49
2022/05/25 12:08:03;;;;;;;1.90;1.80;;;;;;;;;;1787233;78;26289;-52
2022/05/25 12:10:32;;;;;;;2.05;1.95;;;;;;;;;;1782910;78;26444;-52
2022/05/25 12:13:07;;;;;;;2.30;2.10;;;;;;;;;;1788314;78;26289;-53
2022/05/25 12:15:38;;;;;;;2.08;1.98;;;;;;;;;;1784826;78;26324;-46
2022/05/25 12:18:24;;;;;;;2.55;2.15;;;;;;;;;;1790081;78;26738;-50
2022/05/25 12:20:53;;;;;;;2.33;2.10;;;;;;;;;;1779527;78;26318;-49
2022/05/25 12:23:22;;;;;;;2.02;1.92;;;;;;;;;;1793252;78;26277;-52
2022/05/25 12:25:52;;;;;;;2.37;2.22;;;;;;;;;;1791950;78;26372;-51
2022/05/25 12:28:19;;;;;;;3.42;2.37;;;;;;;;;;1783503;78;26805;-49
2022/05/25 12:30:48;;;;;;;3.27;2.20;;;;;;;;;;1780214;78;26320;-52
2022/05/25 12:33:16;;;;;;;3.80;2.10;;;;;;;;;;1793387;78;26301;-50
2022/05/25 12:35:44;;;;;;;1.98;1.90;;;;;;;;;;1780466;78;26308;-52
2022/05/25 12:38:12;;;;;;;2.37;2.10;;;;;;;;;;1780186;78;26403;-50
2022/05/25 12:40:41;;;;;;;3.95;2.30;;;;;;;;;;1784954;78;26346;-52
2022/05/25 12:43:26;;;;;;;3.30;2.22;;;;;;;;;;1788982;78;26895;-50
2022/05/25 12:48:41;;;;;;;4.10;2.30;;;;;;;;;;1783602;78;26385;-49
2022/05/25 12:51:10;;;;;;;2.55;2.35;;;;;;;;;;1779866;78;26309;-49
2022/05/25 12:53:41;;;;;;;2.62;2.40;;;;;;;;;;1777496;78;26351;-50
2022/05/25 12:56:16;;;;;;;3.90;2.50;;;;;;;;;;1787478;78;26288;-53
2022/05/25 12:58:50;;;;;;;3.15;2.65;;;;;;;;;;1763149;78;26313;-51
2022/05/25 13:01:27;;;;;;;2.77;2.58;;;;;;;;;;1788086;78;26412;-49
2022/05/25 13:03:58;;;;;;;2.47;2.37;;;;;;;;;;1781506;78;26348;-53
2022/05/25 13:06:37;;;;;;;2.85;2.65;;;;;;;;;;1786798;78;26302;-49
2022/05/25 13:09:07;;;;;;;2.77;2.60;;;;;;;;;;1787385;78;26860;-49
2022/05/25 13:11:45;;;;;;;3.87;2.58;;;;;;;;;;1788804;78;26430;-48
2022/05/25 13:14:17;;;;;;;2.50;2.40;;;;;;;;;;1786415;78;26376;-49
2022/05/25 13:16:47;;;;;;;2.72;2.58;;;;;;;;;;1781277;78;26415;-53
2022/05/25 13:19:16;;;;;;;2.70;2.50;;;;;;;;;;1784651;78;26320;-48
2022/05/25 13:21:45;;;;;;;2.40;2.30;;;;;;;;;;1791043;78;26305;-52
2022/05/25 13:24:13;;;;;;;2.65;2.45;;;;;;;;;;1788662;78;27869;-54
2022/05/25 13:26:42;;;;;;;2.60;2.50;;;;;;;;;;1783129;78;25738;-49
2022/05/25 13:29:11;;;;;;;2.60;2.50;;;;;;;;;;1790154;78;26308;-52
2022/05/25 13:31:40;;;;;;;2.70;2.50;;;;;;;;;;1788287;78;26301;-52
2022/05/25 13:34:14;;;;;;;3.95;2.55;;;;;;;;;;1786686;78;26643;-51
2022/05/25 13:36:46;;;;;;;2.58;2.47;;;;;;;;;;1793058;78;26301;-51
2022/05/25 13:39:15;;;;;;;2.72;2.60;;;;;;;;;;1791581;78;26371;-52
2022/05/25 13:41:45;;;;;;;2.85;2.50;;;;;;;;;;1792015;78;26784;-50
2022/05/25 13:44:29;;;;;;;2.80;2.60;;;;;;;;;;1787534;78;26344;-60
2022/05/25 13:46:58;;;;;;;2.77;2.60;;;;;;;;;;1786184;78;26308;-50
2022/05/25 13:49:33;;;;;;;2.77;2.58;;;;;;;;;;1791864;78;26302;-53
2022/05/25 13:52:17;;;;;;;2.85;2.65;;;;;;;;;;1794969;78;26367;-50
2022/05/25 13:54:46;;;;;;;4.12;2.67;;;;;;;;;;1792723;78;26367;-57
2022/05/25 13:57:17;;;;;;;2.58;2.40;;;;;;;;;;1798551;78;26298;-52
2022/05/25 13:59:45;;;;;;;3.85;2.50;;;;;;;;;;1786707;78;26294;-54
2022/05/25 14:02:13;;;;;;;2.58;2.37;;;;;;;;;;1792401;78;26935;-55
2022/05/25 14:04:41;;;;;;;4.20;2.33;;;;;;;;;;1792796;78;26747;-64
2022/05/25 14:07:09;;;;;;;2.72;2.20;;;;;;;;;;1793299;80;26363;-58
2022/05/25 14:12:22;;;;;;;2.22;2.12;;;;;;;;;;1792621;80;26467;-55
2022/05/25 14:14:54;;;;;;;2.35;2.20;;;;;;;;;;1792058;80;25899;-58
2022/05/25 14:17:24;;;;;;;2.30;2.20;;;;;;;;;;1790108;78;26816;-53
2022/05/25 14:19:53;;;;;;;2.33;2.22;;;;;;;;;;1792658;80;26349;-62
2022/05/25 14:22:22;;;;;;;2.15;2.05;;;;;;;;;;1792951;80;26969;-57
2022/05/25 14:24:50;;;;;;;4.35;2.17;;;;;;;;;;1791550;78;26340;-60
2022/05/25 14:27:19;;;;;;;1.90;1.80;;;;;;;;;;1792168;78;26648;-56
2022/05/25 14:29:47;;;;;;;2.10;2.00;;;;;;;;;;1797520;78;27576;-56
2022/05/25 14:32:25;;;;;;;2.00;1.90;;;;;;;;;;1793612;79;26289;-47
2022/05/25 14:34:54;;;;;;;1.87;1.87;;;;;;;;;;1792121;80;26360;-48
2022/05/25 14:37:23;;;;;;;2.00;1.90;;;;;;;;;;1791188;79;27614;-51
2022/05/25 14:39:52;;;;;;;2.05;1.95;;;;;;;;;;1790280;80;26313;-47
2022/05/25 14:42:21;;;;;;;2.08;1.80;;;;;;;;;;1794112;80;26694;-46
2022/05/25 14:44:55;;;;;;;2.20;2.00;;;;;;;;;;1794132;80;26359;-50
2022/05/25 14:47:28;;;;;;;1.80;1.80;;;;;;;;;;1793432;78;26333;-58
2022/05/25 14:49:57;;;;;;;1.80;1.70;;;;;;;;;;1793437;78;26310;-53
2022/05/25 14:52:25;;;;;;;3.33;1.90;;;;;;;;;;1793409;78;26306;-55
2022/05/25 14:54:54;;;;;;;1.92;1.80;;;;;;;;;;1782435;80;26363;-56
2022/05/25 14:57:21;;;;;;;1.98;1.75;;;;;;;;;;1792930;80;26355;-54
2022/05/25 14:59:50;;;;;;;2.02;1.50;;;;;;;;;;1805521;78;26309;-56
2022/05/25 15:02:25;;;;;;;2.62;2.08;;;;;;;;;;1804748;78;26306;-54
2022/05/25 15:04:53;;;;;;;3.77;1.85;;;;;;;;;;1799264;78;26313;-61
2022/05/25 15:07:24;;;;;;;4.15;1.60;;;;;;;;;;1796445;78;26884;-55
2022/05/25 15:09:51;;;;;;;2.77;1.60;;;;;;;;;;1797364;78;26313;-55
2022/05/25 15:12:21;;;;;;;3.37;1.60;;;;;;;;;;1802230;78;26293;-51
2022/05/25 15:18:34;;;;;;;2.30;1.45;;;;;;;;;;1797046;78;26355;-56
2022/05/25 15:20:24;;;;;;;5.97;1.52;;;;;;;;;;1772736;78;26915;-56
2022/05/25 15:23:00;;;;;;;3.25;1.50;;;;;;;;;;1794545;78;26750;-51
2022/05/25 15:25:30;;;;;;;4.55;1.80;;;;;;;;;;1797594;78;26297;-50
2022/05/25 15:27:58;;;;;;;1.98;1.50;;;;;;;;;;1799818;78;26308;-56
2022/05/25 15:30:30;;;;;;;5.92;1.40;;;;;;;;;;1798414;78;26301;-56
2022/05/25 15:32:59;;;;;;;2.70;1.70;;;;;;;;;;1794521;78;26281;-55
2022/05/25 15:35:26;;;;;;;2.15;1.30;;;;;;;;;;1795112;78;26317;-51